createdAt,value
2017-09-24T00:01:23.137Z,59.44
2017-09-24T00:03:53.986Z,59.05
2017-09-24T00:06:25.569Z,58.93
2017-09-24T00:08:57.927Z,58.57
2017-09-24T00:11:29.478Z,58.45
2017-09-24T00:14:00.280Z,58.76
2017-09-24T00:16:30.787Z,59.21
2017-09-24T00:19:03.216Z,59.07
2017-09-24T00:21:35.985Z,58.88
2017-09-24T00:24:08.941Z,58.66
2017-09-24T00:26:41.088Z,58.81
2017-09-24T00:29:13.257Z,58.98
2017-09-24T00:31:46.243Z,59.31
2017-09-24T00:34:17.928Z,59.42
2017-09-24T00:36:49.150Z,59.43
2017-09-24T00:39:22.920Z,59.81
2017-09-24T00:41:55.518Z,59.57
2017-09-24T00:44:26.759Z,59.44
2017-09-24T00:47:05.142Z,59.64
2017-09-24T00:49:41.180Z,59.82
2017-09-24T00:52:12.523Z,60.19
2017-09-24T00:54:44.417Z,59.92
2017-09-24T00:57:17.735Z,59.62
2017-09-24T00:59:49.881Z,60.12
2017-09-24T01:02:21.468Z,59.56
2017-09-24T01:04:52.516Z,59.26
2017-09-24T01:07:24.837Z,59.38
2017-09-24T01:09:56.083Z,59.34
2017-09-24T01:12:28.280Z,59.52
2017-09-24T01:14:59.548Z,59.51
2017-09-24T01:17:31.086Z,59.45
2017-09-24T01:20:03.268Z,59.62
2017-09-24T01:22:38.766Z,59.92
2017-09-24T01:25:10.911Z,59.86
2017-09-24T01:27:43.273Z,59.97
2017-09-24T01:30:14.674Z,59.96
2017-09-24T01:32:46.710Z,59.92
2017-09-24T01:43:27.661Z,60.40
2017-09-24T01:45:59.663Z,60.09
2017-09-24T01:48:31.576Z,59.79
2017-09-24T01:51:03.545Z,59.89
2017-09-24T01:53:35.972Z,59.85
2017-09-24T01:56:09.460Z,59.98
2017-09-24T01:58:41.591Z,60.02
2017-09-24T02:01:13.393Z,59.82
2017-09-24T02:03:45.317Z,59.81
2017-09-24T02:06:17.465Z,59.79
2017-09-24T02:08:49.162Z,59.74
2017-09-24T02:11:20.724Z,59.72
2017-09-24T02:13:53.391Z,60.14
2017-09-24T02:16:24.859Z,60.31
2017-09-24T02:18:56.866Z,59.99
2017-09-24T02:21:29.532Z,59.98
2017-09-24T02:24:02.506Z,60.14
2017-09-24T02:26:33.875Z,60.01
2017-09-24T02:29:05.782Z,59.94
2017-09-24T02:31:37.658Z,59.92
2017-09-24T02:34:29.571Z,59.99
2017-09-24T02:37:06.855Z,60.32
2017-09-24T02:39:38.125Z,60.52
2017-09-24T02:42:10.582Z,60.51
2017-09-24T02:44:43.141Z,60.27
2017-09-24T02:47:15.223Z,59.89
2017-09-24T02:49:46.703Z,60.21
2017-09-24T02:52:18.496Z,60.54
2017-09-24T02:54:50.739Z,60.19
2017-09-24T02:57:22.147Z,59.99
2017-09-24T02:59:54.271Z,59.97
2017-09-24T03:02:26.026Z,59.82
2017-09-24T03:05:04.617Z,59.89
2017-09-24T03:07:35.699Z,59.84
2017-09-24T03:10:07.649Z,60.51
2017-09-24T03:12:38.785Z,62.99
2017-09-24T03:15:09.816Z,62.05
2017-09-24T03:17:40.655Z,61.46
2017-09-24T03:20:12.454Z,61.17
2017-09-24T03:22:44.383Z,60.84
2017-09-24T03:25:16.891Z,60.94
2017-09-24T03:27:49.146Z,60.69
2017-09-24T03:30:20.953Z,60.60
2017-09-24T03:32:53.182Z,60.68
2017-09-24T03:35:24.567Z,60.61
2017-09-24T03:37:55.944Z,61.02
2017-09-24T03:40:27.976Z,60.85
2017-09-24T03:42:58.607Z,60.87
2017-09-24T03:45:30.381Z,60.93
2017-09-24T03:48:01.553Z,60.56
2017-09-24T03:50:32.423Z,60.47
2017-09-24T03:53:04.142Z,60.33
2017-09-24T03:55:34.552Z,60.29
2017-09-24T03:58:05.642Z,60.35
2017-09-24T04:00:37.828Z,60.33
2017-09-24T04:03:09.158Z,60.69
2017-09-24T04:05:40.200Z,60.55
2017-09-24T04:08:11.406Z,60.88
2017-09-24T04:10:42.919Z,60.83
2017-09-24T04:13:14.752Z,60.50
2017-09-24T04:15:47.355Z,60.39
2017-09-24T04:18:20.352Z,60.30
2017-09-24T04:20:54.915Z,60.35
2017-09-24T04:23:26.962Z,60.32
2017-09-24T04:25:58.593Z,60.71
2017-09-24T04:28:30.892Z,60.47
2017-09-24T04:31:11.637Z,60.48
2017-09-24T04:33:52.928Z,60.44
2017-09-24T04:36:49.903Z,60.42
2017-09-24T04:39:22.859Z,60.46
2017-09-24T04:41:54.619Z,60.71
2017-09-24T04:44:25.609Z,60.61
2017-09-24T04:46:57.178Z,60.66
2017-09-24T04:49:29.091Z,60.50
2017-09-24T04:51:59.559Z,60.35
2017-09-24T04:54:30.567Z,60.37
2017-09-24T04:57:02.454Z,60.58
2017-09-24T04:59:34.406Z,60.59
2017-09-24T05:02:06.542Z,60.63
2017-09-24T05:04:39.036Z,61.06
2017-09-24T05:07:10.562Z,60.90
2017-09-24T05:09:42.441Z,61.66
2017-09-24T05:12:14.174Z,62.49
2017-09-24T05:14:49.767Z,63.82
2017-09-24T05:17:21.595Z,64.25
2017-09-24T05:19:52.295Z,67.22
2017-09-24T05:22:24.248Z,65.90
2017-09-24T05:24:56.905Z,64.63
2017-09-24T05:27:31.851Z,66.30
2017-09-24T05:30:03.281Z,66.59
2017-09-24T05:32:34.993Z,69.21
2017-09-24T05:35:07.212Z,70.92
2017-09-24T05:37:39.706Z,68.97
2017-09-24T05:40:11.056Z,65.97
2017-09-24T05:42:43.085Z,64.21
2017-09-24T05:45:16.210Z,64.14
2017-09-24T05:47:47.372Z,63.18
2017-09-24T05:50:19.791Z,62.52
2017-09-24T05:52:51.772Z,61.86
2017-09-24T05:55:23.466Z,61.85
2017-09-24T05:57:55.628Z,61.63
2017-09-24T06:00:27.785Z,63.77
2017-09-24T06:02:59.542Z,69.98
2017-09-24T06:05:30.876Z,71.14
2017-09-24T06:08:03.890Z,71.64
2017-09-24T06:10:35.572Z,72.84
2017-09-24T06:13:06.519Z,72.77
2017-09-24T06:15:37.058Z,72.02
2017-09-24T06:18:08.318Z,72.14
2017-09-24T06:20:38.872Z,72.13
2017-09-24T06:23:14.559Z,70.18
2017-09-24T06:25:47.756Z,70.20
2017-09-24T06:28:18.970Z,69.07
2017-09-24T06:30:51.127Z,70.23
2017-09-24T06:33:22.886Z,69.77
2017-09-24T06:35:53.856Z,66.39
2017-09-24T06:38:25.314Z,66.77
2017-09-24T06:40:56.299Z,66.04
2017-09-24T06:43:26.871Z,64.79
2017-09-24T06:45:57.623Z,66.05
2017-09-24T06:48:28.936Z,66.97
2017-09-24T06:50:59.760Z,65.63
2017-09-24T06:53:30.936Z,64.99
2017-09-24T06:56:03.176Z,63.99
2017-09-24T06:58:35.573Z,65.49
2017-09-24T07:01:08.301Z,64.52
2017-09-24T07:03:42.413Z,67.17
2017-09-24T07:06:13.664Z,64.83
2017-09-24T07:08:44.977Z,63.78
2017-09-24T07:11:18.312Z,65.07
2017-09-24T07:13:50.999Z,66.85
2017-09-24T07:16:22.079Z,64.11
2017-09-24T07:21:34.962Z,62.65
2017-09-24T07:24:09.033Z,66.68
2017-09-24T07:26:40.206Z,64.28
2017-09-24T07:29:16.331Z,62.99
2017-09-24T07:31:49.245Z,62.01
2017-09-24T07:34:19.935Z,63.06
2017-09-24T07:36:54.112Z,63.07
2017-09-24T07:39:26.095Z,63.57
2017-09-24T07:41:58.144Z,62.39
2017-09-24T07:44:35.809Z,66.10
2017-09-24T07:47:07.304Z,65.95
2017-09-24T07:49:42.082Z,66.52
2017-09-24T07:52:14.671Z,64.37
2017-09-24T07:54:46.888Z,64.48
2017-09-24T07:57:18.114Z,67.55
2017-09-24T07:59:52.971Z,70.14
2017-09-24T08:02:26.682Z,68.28
2017-09-24T08:05:07.646Z,71.27
2017-09-24T08:07:41.288Z,71.24
2017-09-24T08:10:14.938Z,69.31
2017-09-24T08:12:47.672Z,66.42
2017-09-24T08:15:24.772Z,64.04
2017-09-24T08:17:59.425Z,63.67
2017-09-24T08:20:31.279Z,64.51
2017-09-24T08:23:05.936Z,63.45
2017-09-24T08:25:38.123Z,68.67
2017-09-24T08:28:09.841Z,69.21
2017-09-24T08:30:42.327Z,67.13
2017-09-24T08:33:14.164Z,67.75
2017-09-24T08:35:46.759Z,65.48
2017-09-24T08:38:18.956Z,64.28
2017-09-24T08:40:51.304Z,62.76
2017-09-24T08:43:22.651Z,62.82
2017-09-24T08:45:54.224Z,61.73
2017-09-24T08:48:26.712Z,61.02
2017-09-24T08:50:59.530Z,61.28
2017-09-24T08:53:32.374Z,62.94
2017-09-24T08:56:05.684Z,65.02
2017-09-24T08:58:38.378Z,68.57
2017-09-24T09:01:10.207Z,71.11
2017-09-24T09:03:41.191Z,72.47
2017-09-24T09:06:12.196Z,71.27
2017-09-24T09:08:44.415Z,69.99
2017-09-24T09:11:16.007Z,70.13
2017-09-24T09:13:49.077Z,73.20
2017-09-24T09:16:21.433Z,75.48
2017-09-24T09:18:53.281Z,73.99
2017-09-24T09:21:38.496Z,72.90
2017-09-24T09:24:11.046Z,72.25
2017-09-24T09:26:42.823Z,73.37
2017-09-24T09:29:15.910Z,77.13
2017-09-24T09:31:48.045Z,76.43
2017-09-24T09:34:34.261Z,75.89
2017-09-24T09:37:07.392Z,77.08
2017-09-24T09:39:39.927Z,77.47
2017-09-24T09:42:12.036Z,77.40
2017-09-24T09:44:55.137Z,77.49
2017-09-24T09:47:30.928Z,75.06
2017-09-24T09:50:03.747Z,73.21
2017-09-24T09:52:37.549Z,74.79
2017-09-24T09:55:11.463Z,74.88
2017-09-24T09:57:44.497Z,75.33
2017-09-24T10:00:17.603Z,77.37
2017-09-24T10:02:49.310Z,75.47
2017-09-24T10:05:23.604Z,74.82
2017-09-24T10:10:18.085Z,73.91
2017-09-24T10:12:50.820Z,74.73
2017-09-24T10:18:15.050Z,71.23
2017-09-24T10:20:46.161Z,71.57
2017-09-24T10:23:18.899Z,70.50
2017-09-24T10:25:52.039Z,74.29
2017-09-24T10:28:39.851Z,72.99
2017-09-24T10:31:24.670Z,71.72
2017-09-24T10:34:00.834Z,70.71
2017-09-24T10:36:32.579Z,71.62
2017-09-24T10:39:06.347Z,67.32
2017-09-24T10:41:53.628Z,66.98
2017-09-24T10:44:26.260Z,65.80
2017-09-24T10:47:00.024Z,66.34
2017-09-24T10:49:32.161Z,67.55
2017-09-24T10:52:04.813Z,69.67
2017-09-24T10:54:37.123Z,69.39
2017-09-24T10:57:09.328Z,68.58
2017-09-24T10:59:41.233Z,67.41
2017-09-24T11:02:13.085Z,69.84
2017-09-24T11:04:48.016Z,71.90
2017-09-24T11:07:20.982Z,71.79
2017-09-24T11:09:52.942Z,70.24
2017-09-24T11:12:30.239Z,68.95
2017-09-24T11:15:01.730Z,68.45
2017-09-24T11:17:33.104Z,69.00
2017-09-24T11:20:03.887Z,70.45
2017-09-24T11:22:37.057Z,70.59
2017-09-24T11:25:09.158Z,71.28
2017-09-24T11:27:41.439Z,73.23
2017-09-24T11:30:14.023Z,71.98
2017-09-24T11:32:49.870Z,75.59
2017-09-24T11:35:23.202Z,75.92
2017-09-24T11:37:54.705Z,76.41
2017-09-24T11:40:27.434Z,76.21
2017-09-24T11:42:58.989Z,75.19
2017-09-24T11:45:33.787Z,74.21
2017-09-24T11:48:10.562Z,75.98
2017-09-24T11:50:45.730Z,73.22
2017-09-24T11:53:17.440Z,71.28
2017-09-24T11:55:55.404Z,72.31
2017-09-24T11:58:27.298Z,69.12
2017-09-24T12:01:00.032Z,67.37
2017-09-24T12:03:30.599Z,69.75
2017-09-24T12:06:03.890Z,70.28
2017-09-24T12:08:35.616Z,69.50
2017-09-24T12:11:06.197Z,67.28
2017-09-24T12:13:38.064Z,68.55
2017-09-24T12:16:08.961Z,70.55
2017-09-24T12:18:40.378Z,67.96
2017-09-24T12:21:12.866Z,71.93
2017-09-24T12:23:44.553Z,71.53
2017-09-24T12:26:15.335Z,69.99
2017-09-24T12:28:45.812Z,69.92
2017-09-24T12:31:19.174Z,70.25
2017-09-24T12:33:50.212Z,70.16
2017-09-24T12:36:21.806Z,66.91
2017-09-24T12:41:39.994Z,65.95
2017-09-24T12:44:14.519Z,68.14
2017-09-24T12:46:52.991Z,70.01
2017-09-24T12:49:25.784Z,70.09
2017-09-24T12:54:24.772Z,73.37
2017-09-24T12:56:55.883Z,73.46
2017-09-24T12:59:26.413Z,72.89
2017-09-24T13:01:57.000Z,71.51
2017-09-24T13:04:29.087Z,70.52
2017-09-24T13:07:00.999Z,68.22
2017-09-24T13:09:32.916Z,68.21
2017-09-24T13:12:11.318Z,68.02
2017-09-24T13:14:42.075Z,68.68
2017-09-24T13:17:14.472Z,67.16
2017-09-24T13:19:45.009Z,65.44
2017-09-24T13:22:17.398Z,63.90
2017-09-24T13:24:49.845Z,64.85
2017-09-24T13:27:20.854Z,64.28
2017-09-24T13:29:52.157Z,68.43
2017-09-24T13:32:23.007Z,71.05
2017-09-24T13:34:59.580Z,73.83
2017-09-24T13:37:31.202Z,75.96
2017-09-24T13:40:10.599Z,75.11
2017-09-24T13:42:48.446Z,74.68
2017-09-24T13:45:26.032Z,73.74
2017-09-24T13:47:59.191Z,74.59
2017-09-24T13:50:32.049Z,73.47
2017-09-24T13:53:04.315Z,73.27
2017-09-24T13:55:36.151Z,72.66
2017-09-24T13:58:10.871Z,73.35
2017-09-24T14:00:45.309Z,74.67
2017-09-24T14:03:18.819Z,73.94
2017-09-24T14:05:50.688Z,73.14
2017-09-24T14:08:21.993Z,73.89
2017-09-24T14:10:53.987Z,72.73
2017-09-24T14:13:27.415Z,69.42
2017-09-24T14:16:00.944Z,70.33
2017-09-24T14:18:35.730Z,68.59
2017-09-24T14:21:07.092Z,66.13
2017-09-24T14:23:39.754Z,66.21
2017-09-24T14:26:12.455Z,64.89
2017-09-24T14:28:46.708Z,65.37
2017-09-24T14:31:17.536Z,65.36
2017-09-24T14:33:49.067Z,66.18
2017-09-24T14:36:20.601Z,65.42
2017-09-24T14:38:52.116Z,65.07
2017-09-24T14:41:24.044Z,68.01
2017-09-24T14:46:42.267Z,68.57
2017-09-24T14:49:15.096Z,69.55
2017-09-24T14:51:46.563Z,68.43
2017-09-24T14:54:18.434Z,68.14
2017-09-24T14:56:52.038Z,67.65
2017-09-24T14:59:24.514Z,71.32
2017-09-24T15:01:57.001Z,70.40
2017-09-24T15:04:28.434Z,69.99
2017-09-24T15:06:59.393Z,70.10
2017-09-24T15:09:30.004Z,70.28
2017-09-24T15:12:01.521Z,70.35
2017-09-24T15:14:34.798Z,68.34
2017-09-24T15:17:06.172Z,68.01
2017-09-24T15:19:37.452Z,68.15
2017-09-24T15:22:10.729Z,70.53
2017-09-24T15:24:42.857Z,70.34
2017-09-24T15:27:14.917Z,71.33
2017-09-24T15:29:45.950Z,71.83
2017-09-24T15:32:52.968Z,70.29
2017-09-24T15:35:28.633Z,67.16
2017-09-24T15:38:06.740Z,66.88
2017-09-24T15:40:38.266Z,68.05
2017-09-24T15:43:10.338Z,66.05
2017-09-24T15:45:42.762Z,63.81
2017-09-24T15:48:16.463Z,63.48
2017-09-24T15:50:48.095Z,63.86
2017-09-24T15:53:20.379Z,62.97
2017-09-24T15:56:00.786Z,64.98
2017-09-24T15:58:37.143Z,66.96
2017-09-24T16:01:09.539Z,66.04
2017-09-24T16:03:42.349Z,66.87
2017-09-24T16:06:14.408Z,66.20
2017-09-24T16:08:47.113Z,66.63
2017-09-24T16:11:20.296Z,66.08
2017-09-24T16:13:54.264Z,68.33
2017-09-24T16:16:26.987Z,67.21
2017-09-24T16:21:37.426Z,65.20
2017-09-24T16:24:12.864Z,65.20
2017-09-24T16:27:02.906Z,66.28
2017-09-24T16:29:35.522Z,69.98
2017-09-24T16:32:07.533Z,71.63
2017-09-24T16:34:43.785Z,72.31
2017-09-24T16:37:17.278Z,71.87
2017-09-24T16:39:53.224Z,69.65
2017-09-24T16:42:27.208Z,67.56
2017-09-24T16:45:02.517Z,68.71
2017-09-24T16:47:34.296Z,67.10
2017-09-24T16:50:06.655Z,66.78
2017-09-24T16:52:38.470Z,70.46
2017-09-24T16:55:10.628Z,71.52
2017-09-24T16:57:43.408Z,71.90
2017-09-24T17:00:16.484Z,73.14
2017-09-24T17:02:48.560Z,72.45
2017-09-24T17:05:21.091Z,71.37
2017-09-24T17:07:53.350Z,70.13
2017-09-24T17:10:32.330Z,71.90
2017-09-24T17:13:05.034Z,69.81
2017-09-24T17:15:37.095Z,67.86
2017-09-24T17:18:08.600Z,66.25
2017-09-24T17:20:40.356Z,65.17
2017-09-24T17:23:11.980Z,64.89
2017-09-24T17:25:45.454Z,65.81
2017-09-24T17:28:17.351Z,66.91
2017-09-24T17:30:49.207Z,68.46
2017-09-24T17:33:21.695Z,70.07
2017-09-24T17:35:53.282Z,70.90
2017-09-24T17:38:25.700Z,69.70
2017-09-24T17:40:57.563Z,68.82
2017-09-24T17:43:29.523Z,68.07
2017-09-24T17:46:01.757Z,69.66
2017-09-24T17:48:34.967Z,69.30
2017-09-24T17:51:08.222Z,68.48
2017-09-24T17:53:41.098Z,67.79
2017-09-24T17:56:13.655Z,68.52
2017-09-24T17:58:47.071Z,67.29
2017-09-24T18:01:22.092Z,67.92
2017-09-24T18:03:54.974Z,66.54
2017-09-24T18:06:31.757Z,65.65
2017-09-24T18:09:05.786Z,65.79
2017-09-24T18:11:37.808Z,64.90
2017-09-24T18:14:10.543Z,64.13
2017-09-24T18:16:43.341Z,63.83
2017-09-24T18:19:15.810Z,63.67
2017-09-24T18:21:49.392Z,63.70
2017-09-24T18:24:23.655Z,65.21
2017-09-24T18:29:27.074Z,67.88
2017-09-24T18:32:00.758Z,67.73
2017-09-24T18:34:32.179Z,67.14
2017-09-24T18:37:03.292Z,67.59
2017-09-24T18:39:52.179Z,70.62
2017-09-24T18:42:24.359Z,69.84
2017-09-24T18:45:06.478Z,68.90
2017-09-24T18:47:47.244Z,68.26
2017-09-24T18:50:19.945Z,70.24
2017-09-24T18:52:51.589Z,70.71
2017-09-24T18:55:22.358Z,73.27
2017-09-24T18:57:54.746Z,71.46
2017-09-24T19:00:26.665Z,71.53
2017-09-24T19:03:01.228Z,71.62
2017-09-24T19:05:34.970Z,72.66
2017-09-24T19:08:14.101Z,70.22
2017-09-24T19:10:46.413Z,69.40
2017-09-24T19:13:19.196Z,70.96
2017-09-24T19:15:51.952Z,71.83
2017-09-24T19:18:24.312Z,70.98
2017-09-24T19:20:56.774Z,71.23
2017-09-24T19:23:28.766Z,70.79
2017-09-24T19:26:02.026Z,72.02
2017-09-24T19:28:33.835Z,72.85
2017-09-24T19:31:05.256Z,73.86
2017-09-24T19:33:36.125Z,73.65
2017-09-24T19:36:07.901Z,73.72
2017-09-24T19:38:39.080Z,74.97
2017-09-24T19:41:14.855Z,77.33
2017-09-24T19:43:48.709Z,76.67
2017-09-24T19:46:24.675Z,76.68
2017-09-24T19:48:57.851Z,75.59
2017-09-24T19:51:32.319Z,74.24
2017-09-24T19:54:04.373Z,76.58
2017-09-24T19:56:36.424Z,77.08
2017-09-24T19:59:08.174Z,76.13
2017-09-24T20:01:42.376Z,73.03
2017-09-24T20:04:15.763Z,72.04
2017-09-24T20:06:47.553Z,72.18
2017-09-24T20:09:19.217Z,73.40
2017-09-24T20:11:50.892Z,71.44
2017-09-24T20:14:23.482Z,70.93
2017-09-24T20:16:56.723Z,73.23
2017-09-24T20:19:28.184Z,70.08
2017-09-24T20:21:59.818Z,72.59
2017-09-24T20:24:37.920Z,73.88
2017-09-24T20:27:09.560Z,74.53
2017-09-24T20:29:41.249Z,75.36
2017-09-24T20:32:13.087Z,75.34
2017-09-24T20:34:45.838Z,75.33
2017-09-24T20:37:18.144Z,77.35
2017-09-24T20:39:50.153Z,77.66
2017-09-24T20:42:22.862Z,76.27
2017-09-24T20:44:54.840Z,76.99
2017-09-24T20:47:26.551Z,75.84
2017-09-24T20:49:58.585Z,75.36
2017-09-24T20:52:38.887Z,73.32
2017-09-24T20:55:09.983Z,70.75
2017-09-24T20:57:42.667Z,69.69
2017-09-24T21:00:22.842Z,68.52
2017-09-24T21:02:55.026Z,67.67
2017-09-24T21:05:27.466Z,67.58
2017-09-24T21:08:01.835Z,66.81
2017-09-24T21:10:35.266Z,67.76
2017-09-24T21:13:10.319Z,67.50
2017-09-24T21:15:43.895Z,68.59
2017-09-24T21:18:16.901Z,71.93
2017-09-24T21:20:49.039Z,71.77
2017-09-24T21:23:21.624Z,71.88
2017-09-24T21:25:54.145Z,72.29
2017-09-24T21:28:26.753Z,72.60
2017-09-24T21:30:58.437Z,72.27
2017-09-24T21:33:30.031Z,73.12
2017-09-24T21:36:02.055Z,74.91
2017-09-24T21:38:34.500Z,73.84
2017-09-24T21:41:08.095Z,74.63
2017-09-24T21:43:39.496Z,75.14
2017-09-24T21:46:10.942Z,74.84
2017-09-24T21:48:43.128Z,75.69
2017-09-24T21:53:52.971Z,74.43
2017-09-24T21:56:25.248Z,73.74
2017-09-24T21:59:02.346Z,72.54
2017-09-24T22:01:35.245Z,71.27
2017-09-24T22:04:21.155Z,69.69
2017-09-24T22:07:08.130Z,70.01
2017-09-24T22:09:39.721Z,69.25
2017-09-24T22:12:26.345Z,67.29
2017-09-24T22:14:58.626Z,67.48
2017-09-24T22:17:29.917Z,67.44
2017-09-24T22:20:02.934Z,66.36
2017-09-24T22:22:34.270Z,65.88
2017-09-24T22:25:11.547Z,65.95
2017-09-24T22:27:48.786Z,66.67
2017-09-24T22:30:21.112Z,67.72
2017-09-24T22:32:53.705Z,67.49
2017-09-24T22:35:26.007Z,65.42
2017-09-24T22:37:58.661Z,65.40
2017-09-24T22:40:31.851Z,64.63
2017-09-24T22:43:04.393Z,64.46
2017-09-24T22:45:36.354Z,65.40
2017-09-24T22:48:08.258Z,65.45
2017-09-24T22:50:40.965Z,66.09
2017-09-24T22:53:12.260Z,65.68
2017-09-24T22:55:43.606Z,65.75
2017-09-24T22:58:14.834Z,66.67
2017-09-24T23:00:46.872Z,65.96
2017-09-24T23:03:21.277Z,65.49
2017-09-24T23:05:53.468Z,64.17
2017-09-24T23:08:24.558Z,63.59
2017-09-24T23:10:56.787Z,63.69
2017-09-24T23:13:27.718Z,63.83
2017-09-24T23:15:58.258Z,63.54
2017-09-24T23:18:30.464Z,63.32
2017-09-24T23:21:02.231Z,63.22
2017-09-24T23:23:35.644Z,62.85
2017-09-24T23:26:07.453Z,62.69
2017-09-24T23:28:40.527Z,62.52
2017-09-24T23:31:12.086Z,62.36
2017-09-24T23:33:42.438Z,62.38
2017-09-24T23:36:21.136Z,62.85
2017-09-24T23:38:59.469Z,62.37
2017-09-24T23:41:40.858Z,62.26
2017-09-24T23:44:22.773Z,62.01
2017-09-24T23:47:04.714Z,62.63
2017-09-24T23:49:47.001Z,62.74
2017-09-24T23:52:24.703Z,62.82
2017-09-24T23:55:11.720Z,63.31
2017-09-24T23:57:58.297Z,62.77
